sensor_id;sensor_type;location;lat;lon;timestamp;P1;durP1;ratioP1;P2;durP2;ratioP2
54384;SDS011;40284;52.878;5.998;2022-09-12T00:00:26;14.80;;;13.15;;
54384;SDS011;40284;52.878;5.998;2022-09-12T00:02:53;14.65;;;13.00;;
54384;SDS011;40284;52.878;5.998;2022-09-12T00:05:20;14.05;;;12.65;;
54384;SDS011;40284;52.878;5.998;2022-09-12T00:07:46;15.00;;;12.73;;
54384;SDS011;40284;52.878;5.998;2022-09-12T00:10:12;14.38;;;12.90;;
54384;SDS011;40284;52.878;5.998;2022-09-12T00:12:38;14.20;;;12.75;;
54384;SDS011;40284;52.878;5.998;2022-09-12T00:15:04;14.63;;;13.10;;
54384;SDS011;40284;52.878;5.998;2022-09-12T00:17:33;15.90;;;13.48;;
54384;SDS011;40284;52.878;5.998;2022-09-12T00:19:59;16.55;;;14.75;;
54384;SDS011;40284;52.878;5.998;2022-09-12T00:22:25;14.52;;;12.90;;
54384;SDS011;40284;52.878;5.998;2022-09-12T00:24:51;15.23;;;13.75;;
54384;SDS011;40284;52.878;5.998;2022-09-12T00:27:17;15.65;;;14.05;;
54384;SDS011;40284;52.878;5.998;2022-09-12T00:29:43;15.57;;;12.80;;
54384;SDS011;40284;52.878;5.998;2022-09-12T00:32:09;15.10;;;13.48;;
54384;SDS011;40284;52.878;5.998;2022-09-12T00:34:35;16.08;;;14.25;;
54384;SDS011;40284;52.878;5.998;2022-09-12T00:37:02;20.45;;;15.45;;
54384;SDS011;40284;52.878;5.998;2022-09-12T00:39:28;15.82;;;14.25;;
54384;SDS011;40284;52.878;5.998;2022-09-12T00:41:54;17.20;;;14.48;;
54384;SDS011;40284;52.878;5.998;2022-09-12T00:46:49;16.25;;;13.52;;
54384;SDS011;40284;52.878;5.998;2022-09-12T00:49:27;16.42;;;14.73;;
54384;SDS011;40284;52.878;5.998;2022-09-12T00:54:21;16.42;;;14.75;;
54384;SDS011;40284;52.878;5.998;2022-09-12T00:56:49;16.05;;;14.27;;
54384;SDS011;40284;52.878;5.998;2022-09-12T00:59:17;18.10;;;14.93;;
54384;SDS011;40284;52.878;5.998;2022-09-12T01:01:45;16.25;;;14.50;;
54384;SDS011;40284;52.878;5.998;2022-09-12T01:04:12;17.58;;;15.18;;
54384;SDS011;40284;52.878;5.998;2022-09-12T01:06:39;16.45;;;14.75;;
54384;SDS011;40284;52.878;5.998;2022-09-12T01:09:06;15.48;;;13.88;;
54384;SDS011;40284;52.878;5.998;2022-09-12T01:11:34;15.90;;;14.43;;
54384;SDS011;40284;52.878;5.998;2022-09-12T01:14:01;16.40;;;13.88;;
54384;SDS011;40284;52.878;5.998;2022-09-12T01:16:27;16.85;;;14.88;;
54384;SDS011;40284;52.878;5.998;2022-09-12T01:19:04;17.45;;;15.65;;
54384;SDS011;40284;52.878;5.998;2022-09-12T01:29:19;17.67;;;15.85;;
54384;SDS011;40284;52.878;5.998;2022-09-12T01:31:57;17.88;;;15.98;;
54384;SDS011;40284;52.878;5.998;2022-09-12T01:37:03;19.52;;;17.42;;
54384;SDS011;40284;52.878;5.998;2022-09-12T01:39:38;20.17;;;18.08;;
54384;SDS011;40284;52.878;5.998;2022-09-12T01:44:36;18.40;;;16.60;;
54384;SDS011;40284;52.878;5.998;2022-09-12T01:47:11;18.63;;;16.65;;
54384;SDS011;40284;52.878;5.998;2022-09-12T01:49:49;20.90;;;18.67;;
54384;SDS011;40284;52.878;5.998;2022-09-12T01:52:18;20.77;;;17.40;;
54384;SDS011;40284;52.878;5.998;2022-09-12T01:54:56;20.45;;;18.33;;
54384;SDS011;40284;52.878;5.998;2022-09-12T01:57:32;19.95;;;17.85;;
54384;SDS011;40284;52.878;5.998;2022-09-12T02:00:03;20.63;;;17.75;;
54384;SDS011;40284;52.878;5.998;2022-09-12T02:02:31;20.85;;;18.60;;
54384;SDS011;40284;52.878;5.998;2022-09-12T02:04:59;20.65;;;18.48;;
54384;SDS011;40284;52.878;5.998;2022-09-12T02:07:30;22.23;;;19.60;;
54384;SDS011;40284;52.878;5.998;2022-09-12T02:10:02;21.65;;;19.33;;
54384;SDS011;40284;52.878;5.998;2022-09-12T02:12:31;22.95;;;20.30;;
54384;SDS011;40284;52.878;5.998;2022-09-12T02:15:00;21.23;;;19.13;;
54384;SDS011;40284;52.878;5.998;2022-09-12T02:17:27;24.17;;;21.58;;
54384;SDS011;40284;52.878;5.998;2022-09-12T02:19:59;23.65;;;20.55;;
54384;SDS011;40284;52.878;5.998;2022-09-12T02:22:28;25.15;;;21.13;;
54384;SDS011;40284;52.878;5.998;2022-09-12T02:24:56;24.02;;;21.60;;
54384;SDS011;40284;52.878;5.998;2022-09-12T02:27:25;25.17;;;22.27;;
54384;SDS011;40284;52.878;5.998;2022-09-12T02:29:52;24.85;;;22.40;;
54384;SDS011;40284;52.878;5.998;2022-09-12T02:32:33;25.83;;;22.80;;
54384;SDS011;40284;52.878;5.998;2022-09-12T02:37:44;27.17;;;22.08;;
54384;SDS011;40284;52.878;5.998;2022-09-12T02:40:11;25.20;;;22.48;;
54384;SDS011;40284;52.878;5.998;2022-09-12T02:42:37;27.73;;;22.83;;
54384;SDS011;40284;52.878;5.998;2022-09-12T02:45:03;25.33;;;22.50;;
54384;SDS011;40284;52.878;5.998;2022-09-12T02:47:35;25.10;;;21.58;;
54384;SDS011;40284;52.878;5.998;2022-09-12T02:50:03;22.83;;;20.45;;
54384;SDS011;40284;52.878;5.998;2022-09-12T02:52:32;25.92;;;21.85;;
54384;SDS011;40284;52.878;5.998;2022-09-12T02:54:58;23.67;;;20.73;;
54384;SDS011;40284;52.878;5.998;2022-09-12T02:57:24;25.23;;;22.02;;
54384;SDS011;40284;52.878;5.998;2022-09-12T02:59:52;24.63;;;22.00;;
54384;SDS011;40284;52.878;5.998;2022-09-12T03:05:12;25.30;;;22.70;;
54384;SDS011;40284;52.878;5.998;2022-09-12T03:07:58;25.08;;;22.27;;
54384;SDS011;40284;52.878;5.998;2022-09-12T03:18:31;26.75;;;23.80;;
54384;SDS011;40284;52.878;5.998;2022-09-12T03:21:04;27.42;;;23.48;;
54384;SDS011;40284;52.878;5.998;2022-09-12T03:23:40;25.67;;;22.98;;
54384;SDS011;40284;52.878;5.998;2022-09-12T03:26:09;26.27;;;23.60;;
54384;SDS011;40284;52.878;5.998;2022-09-12T03:28:37;27.65;;;23.60;;
54384;SDS011;40284;52.878;5.998;2022-09-12T03:31:11;28.35;;;25.02;;
54384;SDS011;40284;52.878;5.998;2022-09-12T03:33:37;28.92;;;25.95;;
54384;SDS011;40284;52.878;5.998;2022-09-12T03:36:03;27.02;;;24.17;;
54384;SDS011;40284;52.878;5.998;2022-09-12T03:38:30;31.85;;;25.75;;
54384;SDS011;40284;52.878;5.998;2022-09-12T03:40:56;28.63;;;24.77;;
54384;SDS011;40284;52.878;5.998;2022-09-12T03:43:22;34.35;;;27.27;;
54384;SDS011;40284;52.878;5.998;2022-09-12T03:45:51;29.15;;;25.98;;
54384;SDS011;40284;52.878;5.998;2022-09-12T03:48:17;31.88;;;26.60;;
54384;SDS011;40284;52.878;5.998;2022-09-12T03:50:43;31.92;;;28.02;;
54384;SDS011;40284;52.878;5.998;2022-09-12T03:53:09;31.55;;;26.65;;
54384;SDS011;40284;52.878;5.998;2022-09-12T03:55:37;32.67;;;28.10;;
54384;SDS011;40284;52.878;5.998;2022-09-12T03:58:04;31.75;;;27.25;;
54384;SDS011;40284;52.878;5.998;2022-09-12T04:00:30;33.50;;;27.90;;
54384;SDS011;40284;52.878;5.998;2022-09-12T04:02:56;34.47;;;27.30;;
54384;SDS011;40284;52.878;5.998;2022-09-12T04:05:23;33.20;;;28.85;;
54384;SDS011;40284;52.878;5.998;2022-09-12T04:07:49;32.78;;;27.48;;
54384;SDS011;40284;52.878;5.998;2022-09-12T04:10:15;33.17;;;28.95;;
54384;SDS011;40284;52.878;5.998;2022-09-12T04:12:42;34.50;;;28.40;;
54384;SDS011;40284;52.878;5.998;2022-09-12T04:15:08;34.58;;;27.73;;
54384;SDS011;40284;52.878;5.998;2022-09-12T04:17:34;31.67;;;27.38;;
54384;SDS011;40284;52.878;5.998;2022-09-12T04:20:01;31.25;;;27.33;;
54384;SDS011;40284;52.878;5.998;2022-09-12T04:22:27;35.50;;;28.92;;
54384;SDS011;40284;52.878;5.998;2022-09-12T04:24:54;32.13;;;28.17;;
54384;SDS011;40284;52.878;5.998;2022-09-12T04:27:20;30.58;;;26.67;;
54384;SDS011;40284;52.878;5.998;2022-09-12T04:29:46;31.85;;;28.13;;
54384;SDS011;40284;52.878;5.998;2022-09-12T04:32:12;33.55;;;29.05;;
54384;SDS011;40284;52.878;5.998;2022-09-12T04:34:39;34.20;;;27.85;;
54384;SDS011;40284;52.878;5.998;2022-09-12T04:37:05;33.47;;;27.45;;
54384;SDS011;40284;52.878;5.998;2022-09-12T04:39:31;31.40;;;26.85;;
54384;SDS011;40284;52.878;5.998;2022-09-12T04:41:57;31.58;;;27.17;;
54384;SDS011;40284;52.878;5.998;2022-09-12T04:44:23;32.88;;;28.02;;
54384;SDS011;40284;52.878;5.998;2022-09-12T04:46:50;32.65;;;28.15;;
54384;SDS011;40284;52.878;5.998;2022-09-12T04:49:16;32.78;;;28.33;;
54384;SDS011;40284;52.878;5.998;2022-09-12T04:51:43;33.38;;;28.02;;
54384;SDS011;40284;52.878;5.998;2022-09-12T04:54:12;31.98;;;28.48;;
54384;SDS011;40284;52.878;5.998;2022-09-12T04:56:40;35.00;;;29.65;;
54384;SDS011;40284;52.878;5.998;2022-09-12T04:59:06;34.90;;;27.65;;
54384;SDS011;40284;52.878;5.998;2022-09-12T05:01:32;36.60;;;29.23;;
54384;SDS011;40284;52.878;5.998;2022-09-12T05:03:59;37.40;;;29.77;;
54384;SDS011;40284;52.878;5.998;2022-09-12T05:06:26;37.28;;;29.02;;
54384;SDS011;40284;52.878;5.998;2022-09-12T05:08:54;32.90;;;28.45;;
54384;SDS011;40284;52.878;5.998;2022-09-12T05:11:22;35.53;;;30.60;;
54384;SDS011;40284;52.878;5.998;2022-09-12T05:13:48;35.80;;;30.80;;
54384;SDS011;40284;52.878;5.998;2022-09-12T05:16:16;38.03;;;29.55;;
54384;SDS011;40284;52.878;5.998;2022-09-12T05:18:42;36.90;;;30.05;;
54384;SDS011;40284;52.878;5.998;2022-09-12T05:21:13;35.50;;;29.83;;
54384;SDS011;40284;52.878;5.998;2022-09-12T05:23:40;37.05;;;29.08;;
54384;SDS011;40284;52.878;5.998;2022-09-12T05:26:06;34.40;;;28.45;;
54384;SDS011;40284;52.878;5.998;2022-09-12T05:28:34;35.97;;;29.40;;
54384;SDS011;40284;52.878;5.998;2022-09-12T05:33:26;39.25;;;31.17;;
54384;SDS011;40284;52.878;5.998;2022-09-12T05:35:52;40.58;;;31.33;;
54384;SDS011;40284;52.878;5.998;2022-09-12T05:38:18;38.45;;;31.45;;
54384;SDS011;40284;52.878;5.998;2022-09-12T05:40:44;42.65;;;33.08;;
54384;SDS011;40284;52.878;5.998;2022-09-12T05:43:10;42.90;;;33.45;;
54384;SDS011;40284;52.878;5.998;2022-09-12T05:45:37;39.70;;;31.20;;
54384;SDS011;40284;52.878;5.998;2022-09-12T05:48:03;38.13;;;30.92;;
54384;SDS011;40284;52.878;5.998;2022-09-12T05:50:29;45.40;;;33.72;;
54384;SDS011;40284;52.878;5.998;2022-09-12T05:52:56;42.03;;;32.95;;
54384;SDS011;40284;52.878;5.998;2022-09-12T05:55:22;44.47;;;34.38;;
54384;SDS011;40284;52.878;5.998;2022-09-12T05:57:48;46.65;;;34.15;;
54384;SDS011;40284;52.878;5.998;2022-09-12T06:00:15;48.97;;;36.47;;
54384;SDS011;40284;52.878;5.998;2022-09-12T06:02:41;42.30;;;35.03;;
54384;SDS011;40284;52.878;5.998;2022-09-12T06:05:07;48.53;;;36.53;;
54384;SDS011;40284;52.878;5.998;2022-09-12T06:07:33;48.63;;;34.97;;
54384;SDS011;40284;52.878;5.998;2022-09-12T06:10:00;46.42;;;34.63;;
54384;SDS011;40284;52.878;5.998;2022-09-12T06:12:29;44.17;;;34.95;;
54384;SDS011;40284;52.878;5.998;2022-09-12T06:14:55;49.25;;;35.03;;
54384;SDS011;40284;52.878;5.998;2022-09-12T06:17:21;50.13;;;36.65;;
54384;SDS011;40284;52.878;5.998;2022-09-12T06:19:47;54.35;;;37.22;;
54384;SDS011;40284;52.878;5.998;2022-09-12T06:22:17;52.95;;;37.22;;
54384;SDS011;40284;52.878;5.998;2022-09-12T06:24:43;51.88;;;36.22;;
54384;SDS011;40284;52.878;5.998;2022-09-12T06:27:10;48.30;;;36.10;;
54384;SDS011;40284;52.878;5.998;2022-09-12T06:29:36;53.38;;;36.25;;
54384;SDS011;40284;52.878;5.998;2022-09-12T06:32:02;51.63;;;36.20;;
54384;SDS011;40284;52.878;5.998;2022-09-12T06:34:28;53.75;;;38.30;;
54384;SDS011;40284;52.878;5.998;2022-09-12T06:36:54;52.17;;;38.25;;
54384;SDS011;40284;52.878;5.998;2022-09-12T06:39:21;52.72;;;37.50;;
54384;SDS011;40284;52.878;5.998;2022-09-12T06:41:50;50.03;;;37.17;;
54384;SDS011;40284;52.878;5.998;2022-09-12T06:44:17;50.55;;;37.75;;
54384;SDS011;40284;52.878;5.998;2022-09-12T06:46:43;50.20;;;37.05;;
54384;SDS011;40284;52.878;5.998;2022-09-12T06:49:09;54.47;;;38.97;;
54384;SDS011;40284;52.878;5.998;2022-09-12T06:51:36;51.42;;;35.95;;
54384;SDS011;40284;52.878;5.998;2022-09-12T06:54:02;50.90;;;35.92;;
54384;SDS011;40284;52.878;5.998;2022-09-12T06:56:29;48.83;;;36.78;;
54384;SDS011;40284;52.878;5.998;2022-09-12T06:58:56;53.92;;;39.28;;
54384;SDS011;40284;52.878;5.998;2022-09-12T07:01:27;50.53;;;37.55;;
54384;SDS011;40284;52.878;5.998;2022-09-12T07:03:54;53.90;;;36.60;;
54384;SDS011;40284;52.878;5.998;2022-09-12T07:06:22;53.88;;;37.38;;
54384;SDS011;40284;52.878;5.998;2022-09-12T07:08:49;50.53;;;37.53;;
54384;SDS011;40284;52.878;5.998;2022-09-12T07:11:20;50.92;;;34.63;;
54384;SDS011;40284;52.878;5.998;2022-09-12T07:13:48;52.30;;;38.15;;
54384;SDS011;40284;52.878;5.998;2022-09-12T07:16:14;53.70;;;39.28;;
54384;SDS011;40284;52.878;5.998;2022-09-12T07:18:40;63.33;;;40.60;;
54384;SDS011;40284;52.878;5.998;2022-09-12T07:21:09;61.47;;;40.60;;
54384;SDS011;40284;52.878;5.998;2022-09-12T07:23:36;54.47;;;38.75;;
54384;SDS011;40284;52.878;5.998;2022-09-12T07:26:02;54.78;;;39.95;;
54384;SDS011;40284;52.878;5.998;2022-09-12T07:28:29;53.88;;;41.05;;
54384;SDS011;40284;52.878;5.998;2022-09-12T07:30:56;53.67;;;39.70;;
54384;SDS011;40284;52.878;5.998;2022-09-12T07:33:23;55.05;;;38.33;;
54384;SDS011;40284;52.878;5.998;2022-09-12T07:35:51;58.40;;;41.55;;
54384;SDS011;40284;52.878;5.998;2022-09-12T07:38:21;60.05;;;41.90;;
54384;SDS011;40284;52.878;5.998;2022-09-12T07:40:47;58.33;;;41.28;;
54384;SDS011;40284;52.878;5.998;2022-09-12T07:43:13;58.22;;;40.38;;
54384;SDS011;40284;52.878;5.998;2022-09-12T07:45:40;56.70;;;38.92;;
54384;SDS011;40284;52.878;5.998;2022-09-12T07:48:09;59.45;;;42.17;;
54384;SDS011;40284;52.878;5.998;2022-09-12T07:50:35;61.05;;;42.17;;
54384;SDS011;40284;52.878;5.998;2022-09-12T07:53:04;56.67;;;40.83;;
54384;SDS011;40284;52.878;5.998;2022-09-12T07:55:31;55.83;;;39.13;;
54384;SDS011;40284;52.878;5.998;2022-09-12T07:57:57;56.90;;;40.10;;
54384;SDS011;40284;52.878;5.998;2022-09-12T08:00:23;61.25;;;39.92;;
54384;SDS011;40284;52.878;5.998;2022-09-12T08:02:50;59.05;;;39.08;;
54384;SDS011;40284;52.878;5.998;2022-09-12T08:05:16;62.92;;;42.10;;
54384;SDS011;40284;52.878;5.998;2022-09-12T08:07:42;59.45;;;42.05;;
54384;SDS011;40284;52.878;5.998;2022-09-12T08:10:09;66.65;;;45.03;;
54384;SDS011;40284;52.878;5.998;2022-09-12T08:12:35;63.47;;;42.45;;
54384;SDS011;40284;52.878;5.998;2022-09-12T08:15:01;64.22;;;43.13;;
54384;SDS011;40284;52.878;5.998;2022-09-12T08:17:27;64.10;;;42.65;;
54384;SDS011;40284;52.878;5.998;2022-09-12T08:19:54;62.78;;;43.83;;
54384;SDS011;40284;52.878;5.998;2022-09-12T08:22:20;61.40;;;42.50;;
54384;SDS011;40284;52.878;5.998;2022-09-12T08:24:49;62.55;;;42.22;;
54384;SDS011;40284;52.878;5.998;2022-09-12T08:27:15;65.22;;;42.30;;
54384;SDS011;40284;52.878;5.998;2022-09-12T08:29:41;67.93;;;43.05;;
54384;SDS011;40284;52.878;5.998;2022-09-12T08:32:07;59.00;;;42.70;;
54384;SDS011;40284;52.878;5.998;2022-09-12T08:34:33;62.15;;;42.97;;
54384;SDS011;40284;52.878;5.998;2022-09-12T08:37:00;60.47;;;41.05;;
54384;SDS011;40284;52.878;5.998;2022-09-12T08:39:26;66.05;;;40.78;;
54384;SDS011;40284;52.878;5.998;2022-09-12T08:41:57;67.15;;;41.92;;
54384;SDS011;40284;52.878;5.998;2022-09-12T08:44:46;64.60;;;42.95;;
54384;SDS011;40284;52.878;5.998;2022-09-12T08:47:34;59.28;;;40.42;;
54384;SDS011;40284;52.878;5.998;2022-09-12T08:55:05;63.47;;;41.70;;
54384;SDS011;40284;52.878;5.998;2022-09-12T08:57:37;58.63;;;41.23;;
54384;SDS011;40284;52.878;5.998;2022-09-12T09:00:05;57.28;;;39.55;;
54384;SDS011;40284;52.878;5.998;2022-09-12T09:10:06;59.22;;;37.72;;
54384;SDS011;40284;52.878;5.998;2022-09-12T09:12:37;58.45;;;38.83;;
54384;SDS011;40284;52.878;5.998;2022-09-12T09:17:51;52.47;;;38.05;;
54384;SDS011;40284;52.878;5.998;2022-09-12T09:22:57;50.95;;;36.13;;
54384;SDS011;40284;52.878;5.998;2022-09-12T09:25:49;55.25;;;35.60;;
54384;SDS011;40284;52.878;5.998;2022-09-12T09:28:19;48.55;;;33.75;;
54384;SDS011;40284;52.878;5.998;2022-09-12T09:30:45;49.47;;;35.30;;
54384;SDS011;40284;52.878;5.998;2022-09-12T09:33:14;46.45;;;31.75;;
54384;SDS011;40284;52.878;5.998;2022-09-12T09:35:44;47.80;;;32.00;;
54384;SDS011;40284;52.878;5.998;2022-09-12T09:38:24;48.78;;;33.53;;
54384;SDS011;40284;52.878;5.998;2022-09-12T09:43:21;45.60;;;32.47;;
54384;SDS011;40284;52.878;5.998;2022-09-12T09:45:48;44.60;;;31.52;;
54384;SDS011;40284;52.878;5.998;2022-09-12T09:48:18;47.80;;;33.83;;
54384;SDS011;40284;52.878;5.998;2022-09-12T09:50:44;46.25;;;32.75;;
54384;SDS011;40284;52.878;5.998;2022-09-12T09:53:20;50.28;;;34.63;;
54384;SDS011;40284;52.878;5.998;2022-09-12T09:55:47;49.25;;;34.45;;
54384;SDS011;40284;52.878;5.998;2022-09-12T09:58:26;50.65;;;33.28;;
54384;SDS011;40284;52.878;5.998;2022-09-12T10:00:56;42.75;;;31.58;;
54384;SDS011;40284;52.878;5.998;2022-09-12T10:03:24;41.42;;;30.15;;
54384;SDS011;40284;52.878;5.998;2022-09-12T10:05:51;47.88;;;33.97;;
54384;SDS011;40284;52.878;5.998;2022-09-12T10:08:28;49.17;;;33.03;;
54384;SDS011;40284;52.878;5.998;2022-09-12T10:11:00;45.15;;;33.67;;
54384;SDS011;40284;52.878;5.998;2022-09-12T10:13:29;46.13;;;33.75;;
54384;SDS011;40284;52.878;5.998;2022-09-12T10:16:00;51.20;;;34.30;;
54384;SDS011;40284;52.878;5.998;2022-09-12T10:18:37;48.60;;;35.13;;
54384;SDS011;40284;52.878;5.998;2022-09-12T10:23:43;45.85;;;32.63;;
54384;SDS011;40284;52.878;5.998;2022-09-12T10:26:14;44.55;;;31.10;;
54384;SDS011;40284;52.878;5.998;2022-09-12T10:28:52;44.67;;;31.15;;
54384;SDS011;40284;52.878;5.998;2022-09-12T10:31:26;37.45;;;25.85;;
54384;SDS011;40284;52.878;5.998;2022-09-12T10:33:58;33.28;;;25.27;;
54384;SDS011;40284;52.878;5.998;2022-09-12T10:36:25;34.28;;;23.98;;
54384;SDS011;40284;52.878;5.998;2022-09-12T10:38:59;36.22;;;26.63;;
54384;SDS011;40284;52.878;5.998;2022-09-12T10:41:25;33.38;;;24.17;;
54384;SDS011;40284;52.878;5.998;2022-09-12T10:44:33;37.78;;;25.45;;
54384;SDS011;40284;52.878;5.998;2022-09-12T10:46:52;36.97;;;24.77;;
54384;SDS011;40284;52.878;5.998;2022-09-12T10:51:45;27.15;;;19.50;;
54384;SDS011;40284;52.878;5.998;2022-09-12T10:54:13;26.15;;;18.58;;
54384;SDS011;40284;52.878;5.998;2022-09-12T11:01:54;25.83;;;18.30;;
54384;SDS011;40284;52.878;5.998;2022-09-12T11:15:22;25.40;;;16.88;;
54384;SDS011;40284;52.878;5.998;2022-09-12T11:17:59;22.08;;;15.55;;
54384;SDS011;40284;52.878;5.998;2022-09-12T11:20:37;26.58;;;18.77;;
54384;SDS011;40284;52.878;5.998;2022-09-12T11:33:40;17.70;;;12.27;;
54384;SDS011;40284;52.878;5.998;2022-09-12T11:36:11;14.55;;;10.65;;
54384;SDS011;40284;52.878;5.998;2022-09-12T11:41:05;17.10;;;13.60;;
54384;SDS011;40284;52.878;5.998;2022-09-12T11:46:06;12.57;;;9.30;;
54384;SDS011;40284;52.878;5.998;2022-09-12T11:48:46;19.33;;;13.30;;
54384;SDS011;40284;52.878;5.998;2022-09-12T11:51:20;20.73;;;13.38;;
54384;SDS011;40284;52.878;5.998;2022-09-12T11:53:55;12.13;;;9.07;;
54384;SDS011;40284;52.878;5.998;2022-09-12T11:56:22;8.73;;;6.43;;
54384;SDS011;40284;52.878;5.998;2022-09-12T11:58:50;7.53;;;6.10;;
54384;SDS011;40284;52.878;5.998;2022-09-12T12:01:20;10.60;;;7.63;;
54384;SDS011;40284;52.878;5.998;2022-09-12T12:03:47;9.38;;;7.30;;
54384;SDS011;40284;52.878;5.998;2022-09-12T12:08:40;11.90;;;7.53;;
54384;SDS011;40284;52.878;5.998;2022-09-12T12:11:07;10.38;;;7.72;;
54384;SDS011;40284;52.878;5.998;2022-09-12T12:13:50;13.68;;;9.30;;
54384;SDS011;40284;52.878;5.998;2022-09-12T12:16:22;11.43;;;8.95;;
54384;SDS011;40284;52.878;5.998;2022-09-12T12:18:59;13.52;;;10.05;;
54384;SDS011;40284;52.878;5.998;2022-09-12T12:21:45;11.85;;;9.82;;
54384;SDS011;40284;52.878;5.998;2022-09-12T12:27:00;12.40;;;9.63;;
54384;SDS011;40284;52.878;5.998;2022-09-12T12:34:39;12.70;;;10.48;;
54384;SDS011;40284;52.878;5.998;2022-09-12T12:44:58;12.45;;;10.73;;
54384;SDS011;40284;52.878;5.998;2022-09-12T12:47:25;11.73;;;8.88;;
54384;SDS011;40284;52.878;5.998;2022-09-12T12:50:11;11.70;;;7.65;;
54384;SDS011;40284;52.878;5.998;2022-09-12T12:55:13;8.80;;;6.97;;
54384;SDS011;40284;52.878;5.998;2022-09-12T12:57:51;10.68;;;8.23;;
54384;SDS011;40284;52.878;5.998;2022-09-12T13:00:25;10.15;;;9.05;;
54384;SDS011;40284;52.878;5.998;2022-09-12T13:05:20;13.02;;;8.02;;
54384;SDS011;40284;52.878;5.998;2022-09-12T13:07:52;12.30;;;8.55;;
54384;SDS011;40284;52.878;5.998;2022-09-12T13:10:23;8.25;;;7.03;;
54384;SDS011;40284;52.878;5.998;2022-09-12T13:12:49;9.23;;;6.80;;
54384;SDS011;40284;52.878;5.998;2022-09-12T13:17:56;10.57;;;7.78;;
54384;SDS011;40284;52.878;5.998;2022-09-12T13:20:25;7.10;;;5.85;;
54384;SDS011;40284;52.878;5.998;2022-09-12T13:22:53;7.68;;;6.45;;
54384;SDS011;40284;52.878;5.998;2022-09-12T13:27:59;8.00;;;7.20;;
54384;SDS011;40284;52.878;5.998;2022-09-12T13:30:29;8.88;;;7.53;;
54384;SDS011;40284;52.878;5.998;2022-09-12T13:32:56;9.32;;;7.72;;
54384;SDS011;40284;52.878;5.998;2022-09-12T13:38:17;8.35;;;6.65;;
54384;SDS011;40284;52.878;5.998;2022-09-12T13:41:05;9.00;;;7.57;;
54384;SDS011;40284;52.878;5.998;2022-09-12T13:43:41;8.98;;;6.40;;
54384;SDS011;40284;52.878;5.998;2022-09-12T13:46:07;7.65;;;5.68;;
54384;SDS011;40284;52.878;5.998;2022-09-12T13:48:37;9.70;;;6.20;;
54384;SDS011;40284;52.878;5.998;2022-09-12T13:51:04;9.77;;;6.70;;
54384;SDS011;40284;52.878;5.998;2022-09-12T13:53:31;10.48;;;7.20;;
54384;SDS011;40284;52.878;5.998;2022-09-12T13:56:01;8.30;;;6.18;;
54384;SDS011;40284;52.878;5.998;2022-09-12T13:58:31;7.70;;;6.72;;
54384;SDS011;40284;52.878;5.998;2022-09-12T14:01:00;9.75;;;7.65;;
54384;SDS011;40284;52.878;5.998;2022-09-12T14:03:27;8.50;;;6.13;;
54384;SDS011;40284;52.878;5.998;2022-09-12T14:06:12;9.73;;;7.15;;
54384;SDS011;40284;52.878;5.998;2022-09-12T14:08:40;11.35;;;8.80;;
54384;SDS011;40284;52.878;5.998;2022-09-12T14:11:08;12.18;;;8.02;;
54384;SDS011;40284;52.878;5.998;2022-09-12T14:13:35;9.40;;;7.50;;
54384;SDS011;40284;52.878;5.998;2022-09-12T14:16:02;12.77;;;8.88;;
54384;SDS011;40284;52.878;5.998;2022-09-12T14:18:33;8.85;;;7.25;;
54384;SDS011;40284;52.878;5.998;2022-09-12T14:21:08;8.60;;;5.63;;
54384;SDS011;40284;52.878;5.998;2022-09-12T14:23:34;7.55;;;4.90;;
54384;SDS011;40284;52.878;5.998;2022-09-12T14:26:08;6.20;;;4.53;;
54384;SDS011;40284;52.878;5.998;2022-09-12T14:28:35;7.25;;;5.15;;
54384;SDS011;40284;52.878;5.998;2022-09-12T14:33:39;6.40;;;4.90;;
54384;SDS011;40284;52.878;5.998;2022-09-12T14:38:44;7.90;;;4.88;;
54384;SDS011;40284;52.878;5.998;2022-09-12T14:41:12;6.28;;;4.63;;
54384;SDS011;40284;52.878;5.998;2022-09-12T14:43:43;6.50;;;5.15;;
54384;SDS011;40284;52.878;5.998;2022-09-12T14:46:14;7.07;;;4.95;;
54384;SDS011;40284;52.878;5.998;2022-09-12T14:48:50;8.82;;;5.45;;
54384;SDS011;40284;52.878;5.998;2022-09-12T14:51:27;6.27;;;5.17;;
54384;SDS011;40284;52.878;5.998;2022-09-12T14:53:56;7.72;;;5.80;;
54384;SDS011;40284;52.878;5.998;2022-09-12T14:56:36;9.05;;;6.57;;
54384;SDS011;40284;52.878;5.998;2022-09-12T15:01:47;7.28;;;6.28;;
54384;SDS011;40284;52.878;5.998;2022-09-12T15:04:12;6.85;;;5.78;;
54384;SDS011;40284;52.878;5.998;2022-09-12T15:06:58;9.50;;;5.75;;
54384;SDS011;40284;52.878;5.998;2022-09-12T15:09:24;8.55;;;5.35;;
54384;SDS011;40284;52.878;5.998;2022-09-12T15:11:51;7.85;;;5.30;;
54384;SDS011;40284;52.878;5.998;2022-09-12T15:14:17;7.95;;;6.15;;
54384;SDS011;40284;52.878;5.998;2022-09-12T15:16:43;8.60;;;5.45;;
54384;SDS011;40284;52.878;5.998;2022-09-12T15:19:09;9.48;;;4.85;;
54384;SDS011;40284;52.878;5.998;2022-09-12T15:21:36;6.28;;;5.57;;
54384;SDS011;40284;52.878;5.998;2022-09-12T15:24:02;7.90;;;6.10;;
54384;SDS011;40284;52.878;5.998;2022-09-12T15:26:28;5.95;;;5.20;;
54384;SDS011;40284;52.878;5.998;2022-09-12T15:28:55;9.30;;;5.40;;
54384;SDS011;40284;52.878;5.998;2022-09-12T15:31:29;7.00;;;4.55;;
54384;SDS011;40284;52.878;5.998;2022-09-12T15:33:55;11.10;;;5.32;;
54384;SDS011;40284;52.878;5.998;2022-09-12T15:36:22;11.77;;;7.13;;
54384;SDS011;40284;52.878;5.998;2022-09-12T15:38:49;12.10;;;8.18;;
54384;SDS011;40284;52.878;5.998;2022-09-12T15:41:16;11.68;;;7.93;;
54384;SDS011;40284;52.878;5.998;2022-09-12T15:43:42;13.48;;;7.95;;
54384;SDS011;40284;52.878;5.998;2022-09-12T15:46:09;10.75;;;7.47;;
54384;SDS011;40284;52.878;5.998;2022-09-12T15:48:35;10.77;;;6.63;;
54384;SDS011;40284;52.878;5.998;2022-09-12T15:51:02;8.55;;;6.80;;
54384;SDS011;40284;52.878;5.998;2022-09-12T15:53:29;7.00;;;5.70;;
54384;SDS011;40284;52.878;5.998;2022-09-12T15:55:55;11.77;;;6.93;;
54384;SDS011;40284;52.878;5.998;2022-09-12T15:58:22;8.05;;;6.18;;
54384;SDS011;40284;52.878;5.998;2022-09-12T16:00:48;9.15;;;6.93;;
54384;SDS011;40284;52.878;5.998;2022-09-12T16:03:24;8.75;;;6.05;;
54384;SDS011;40284;52.878;5.998;2022-09-12T16:05:57;6.30;;;5.40;;
54384;SDS011;40284;52.878;5.998;2022-09-12T16:08:24;11.90;;;5.88;;
54384;SDS011;40284;52.878;5.998;2022-09-12T16:10:52;8.75;;;5.72;;
54384;SDS011;40284;52.878;5.998;2022-09-12T16:13:18;7.97;;;6.25;;
54384;SDS011;40284;52.878;5.998;2022-09-12T16:15:44;9.80;;;6.60;;
54384;SDS011;40284;52.878;5.998;2022-09-12T16:18:10;9.18;;;6.57;;
54384;SDS011;40284;52.878;5.998;2022-09-12T16:20:37;7.63;;;6.93;;
54384;SDS011;40284;52.878;5.998;2022-09-12T16:23:04;7.28;;;6.30;;
54384;SDS011;40284;52.878;5.998;2022-09-12T16:25:30;11.20;;;7.82;;
54384;SDS011;40284;52.878;5.998;2022-09-12T16:27:56;8.98;;;5.78;;
54384;SDS011;40284;52.878;5.998;2022-09-12T16:30:22;8.23;;;5.80;;
54384;SDS011;40284;52.878;5.998;2022-09-12T16:32:50;6.43;;;5.32;;
54384;SDS011;40284;52.878;5.998;2022-09-12T16:35:16;8.65;;;5.55;;
54384;SDS011;40284;52.878;5.998;2022-09-12T16:37:42;6.07;;;4.75;;
54384;SDS011;40284;52.878;5.998;2022-09-12T16:40:08;7.10;;;4.72;;
54384;SDS011;40284;52.878;5.998;2022-09-12T16:42:35;8.57;;;4.43;;
54384;SDS011;40284;52.878;5.998;2022-09-12T16:45:01;4.57;;;3.92;;
54384;SDS011;40284;52.878;5.998;2022-09-12T16:47:27;7.60;;;5.10;;